createdAt,value
2019-02-02T00:01:31.530Z,100.00
2019-02-02T00:03:59.209Z,100.00
2019-02-02T00:06:26.870Z,100.00
2019-02-02T00:08:54.415Z,100.00
2019-02-02T00:11:22.102Z,100.00
2019-02-02T00:13:49.680Z,100.00
2019-02-02T00:16:17.435Z,100.00
2019-02-02T00:18:45.010Z,100.00
2019-02-02T00:21:12.694Z,100.00
2019-02-02T00:23:40.255Z,100.00
2019-02-02T00:26:08.955Z,100.00
2019-02-02T00:28:36.512Z,100.00
2019-02-02T00:31:04.280Z,100.00
2019-02-02T00:33:31.866Z,99.68
2019-02-02T00:35:59.585Z,99.52
2019-02-02T00:38:27.133Z,99.71
2019-02-02T00:41:01.205Z,99.83
2019-02-02T00:43:29.034Z,99.58
2019-02-02T00:45:56.733Z,99.84
2019-02-02T00:48:24.415Z,100.00
2019-02-02T00:50:52.153Z,100.00
2019-02-02T00:53:19.749Z,99.75
2019-02-02T00:55:47.367Z,99.88
2019-02-02T00:58:15.009Z,100.00
2019-02-02T01:00:42.641Z,99.81
2019-02-02T01:03:10.416Z,99.77
2019-02-02T01:05:38.069Z,99.94
2019-02-02T01:08:05.633Z,99.69
2019-02-02T01:10:34.129Z,100.00
2019-02-02T01:13:01.804Z,100.00
2019-02-02T01:15:29.650Z,99.90
2019-02-02T01:17:57.351Z,99.77
2019-02-02T01:20:24.987Z,99.74
2019-02-02T01:22:52.547Z,100.00
2019-02-02T01:25:20.185Z,100.00
2019-02-02T01:27:47.809Z,100.00
2019-02-02T01:30:16.342Z,100.00
2019-02-02T01:32:44.051Z,100.00
2019-02-02T01:35:12.866Z,100.00
2019-02-02T01:37:40.625Z,100.00
2019-02-02T01:40:11.910Z,100.00
2019-02-02T01:42:39.526Z,100.00
2019-02-02T01:45:10.149Z,100.00
2019-02-02T01:47:37.726Z,100.00
2019-02-02T01:50:08.023Z,100.00
2019-02-02T01:52:35.629Z,100.00
2019-02-02T01:55:04.363Z,100.00
2019-02-02T01:57:31.989Z,100.00
2019-02-02T01:59:59.744Z,100.00
2019-02-02T02:02:27.295Z,100.00
2019-02-02T02:04:54.945Z,100.00
2019-02-02T02:07:22.516Z,100.00
2019-02-02T02:09:50.192Z,100.00
2019-02-02T02:12:17.768Z,100.00
2019-02-02T02:14:45.428Z,100.00
2019-02-02T02:17:12.986Z,100.00
2019-02-02T02:19:40.666Z,100.00
2019-02-02T02:22:08.334Z,100.00
2019-02-02T02:24:36.002Z,100.00
2019-02-02T02:27:03.699Z,100.00
2019-02-02T02:29:31.300Z,100.00
2019-02-02T02:31:58.931Z,100.00
2019-02-02T02:34:26.643Z,100.00
2019-02-02T02:36:54.297Z,100.00
2019-02-02T02:39:21.929Z,100.00
2019-02-02T02:41:49.481Z,100.00
2019-02-02T02:44:17.131Z,100.00
2019-02-02T02:46:44.702Z,100.00
2019-02-02T02:49:12.363Z,100.00
2019-02-02T02:51:40.931Z,100.00
2019-02-02T02:54:08.730Z,100.00
2019-02-02T02:56:36.469Z,100.00
2019-02-02T02:59:04.269Z,100.00
2019-02-02T03:01:31.980Z,100.00
2019-02-02T03:03:59.705Z,100.00
2019-02-02T03:06:27.399Z,100.00
2019-02-02T03:08:55.205Z,100.00
2019-02-02T03:11:22.999Z,100.00
2019-02-02T03:13:50.771Z,100.00
2019-02-02T03:16:18.451Z,100.00
2019-02-02T03:18:46.112Z,100.00
2019-02-02T03:21:13.833Z,100.00
2019-02-02T03:23:41.517Z,100.00
2019-02-02T03:26:09.095Z,100.00
2019-02-02T03:28:36.790Z,100.00
2019-02-02T03:31:04.464Z,100.00
2019-02-02T03:33:32.429Z,100.00
2019-02-02T03:36:00.013Z,100.00
2019-02-02T03:38:27.647Z,100.00
2019-02-02T03:40:55.198Z,100.00
2019-02-02T03:43:22.838Z,100.00
2019-02-02T03:45:50.412Z,100.00
2019-02-02T03:48:18.197Z,100.00
2019-02-02T03:50:45.805Z,100.00
2019-02-02T03:53:13.478Z,100.00
2019-02-02T03:55:43.997Z,100.00
2019-02-02T03:58:11.571Z,100.00
2019-02-02T04:00:39.252Z,100.00
2019-02-02T04:03:06.931Z,100.00
2019-02-02T04:05:34.851Z,100.00
2019-02-02T04:08:02.511Z,100.00
2019-02-02T04:10:30.140Z,100.00
2019-02-02T04:12:57.786Z,100.00
2019-02-02T04:15:25.468Z,100.00
2019-02-02T04:17:53.285Z,100.00
2019-02-02T04:20:21.384Z,100.00
2019-02-02T04:22:49.078Z,100.00
2019-02-02T04:25:20.412Z,100.00
2019-02-02T04:27:48.070Z,100.00
2019-02-02T04:30:17.909Z,100.00
2019-02-02T04:32:45.880Z,100.00
2019-02-02T04:35:13.636Z,100.00
2019-02-02T04:37:41.295Z,100.00
2019-02-02T04:40:10.213Z,100.00
2019-02-02T04:42:37.878Z,100.00
2019-02-02T04:45:06.432Z,100.00
2019-02-02T04:47:34.168Z,100.00
2019-02-02T04:50:01.748Z,100.00
2019-02-02T04:52:29.461Z,100.00
2019-02-02T04:54:57.047Z,100.00
2019-02-02T04:57:24.808Z,100.00
2019-02-02T04:59:52.566Z,100.00
2019-02-02T05:02:20.144Z,100.00
2019-02-02T05:04:47.756Z,100.00
2019-02-02T05:07:15.404Z,100.00
2019-02-02T05:09:43.084Z,100.00
2019-02-02T05:12:10.846Z,100.00
2019-02-02T05:14:38.495Z,100.00
2019-02-02T05:17:06.154Z,100.00
2019-02-02T05:19:33.736Z,100.00
2019-02-02T05:22:01.374Z,100.00
2019-02-02T05:24:28.936Z,100.00
2019-02-02T05:26:56.674Z,100.00
2019-02-02T05:29:24.264Z,100.00
2019-02-02T05:31:51.921Z,100.00
2019-02-02T05:34:20.642Z,100.00
2019-02-02T05:36:48.901Z,100.00
2019-02-02T05:39:16.640Z,100.00
2019-02-02T05:41:44.371Z,100.00
2019-02-02T05:44:12.055Z,100.00
2019-02-02T05:46:39.989Z,100.00
2019-02-02T05:49:08.120Z,100.00
2019-02-02T05:51:35.805Z,100.00
2019-02-02T05:54:04.544Z,100.00
2019-02-02T05:56:32.163Z,100.00
2019-02-02T05:59:01.264Z,100.00
2019-02-02T06:01:30.090Z,100.00
2019-02-02T06:03:57.844Z,100.00
2019-02-02T06:06:25.455Z,100.00
2019-02-02T06:08:53.150Z,100.00
2019-02-02T06:11:20.734Z,100.00
2019-02-02T06:13:48.412Z,100.00
2019-02-02T06:16:16.054Z,100.00
2019-02-02T06:18:43.659Z,100.00
2019-02-02T06:21:11.428Z,100.00
2019-02-02T06:23:39.470Z,100.00
2019-02-02T06:26:07.201Z,100.00
2019-02-02T06:28:34.880Z,100.00
2019-02-02T06:31:02.601Z,100.00
2019-02-02T06:33:30.304Z,100.00
2019-02-02T06:35:58.185Z,100.00
2019-02-02T06:38:25.917Z,100.00
2019-02-02T06:40:53.667Z,100.00
2019-02-02T06:43:21.279Z,100.00
2019-02-02T06:45:49.012Z,100.00
2019-02-02T06:48:16.749Z,100.00
2019-02-02T06:50:44.375Z,100.00
2019-02-02T06:53:11.986Z,100.00
2019-02-02T06:55:39.661Z,100.00
2019-02-02T06:58:07.228Z,100.00
2019-02-02T07:00:34.947Z,100.00
2019-02-02T07:03:05.687Z,100.00
2019-02-02T07:05:33.951Z,100.00
2019-02-02T07:08:01.812Z,100.00
2019-02-02T07:10:29.849Z,100.00
2019-02-02T07:12:57.456Z,100.00
2019-02-02T07:15:26.877Z,100.00
2019-02-02T07:17:54.678Z,100.00
2019-02-02T07:20:22.619Z,100.00
2019-02-02T07:22:50.310Z,100.00
2019-02-02T07:25:19.503Z,100.00
2019-02-02T07:27:47.401Z,100.00
2019-02-02T07:30:28.427Z,100.00
2019-02-02T07:32:47.048Z,100.00
2019-02-02T07:35:14.802Z,100.00
2019-02-02T07:37:42.616Z,100.00
2019-02-02T07:40:11.366Z,100.00
2019-02-02T07:42:38.980Z,100.00
2019-02-02T07:45:09.798Z,100.00
2019-02-02T07:47:37.432Z,100.00
2019-02-02T07:50:06.243Z,100.00
2019-02-02T07:52:33.888Z,100.00
2019-02-02T07:55:01.705Z,100.00
2019-02-02T07:57:29.412Z,100.00
2019-02-02T07:59:57.160Z,100.00
2019-02-02T08:02:24.832Z,100.00
2019-02-02T08:04:52.456Z,100.00
2019-02-02T08:07:20.102Z,100.00
2019-02-02T08:09:47.733Z,100.00
2019-02-02T08:12:15.386Z,100.00
2019-02-02T08:14:42.993Z,100.00
2019-02-02T08:17:10.545Z,100.00
2019-02-02T08:19:38.180Z,100.00
2019-02-02T08:22:07.049Z,100.00
2019-02-02T08:24:34.655Z,100.00
2019-02-02T08:27:02.210Z,100.00
2019-02-02T08:29:30.009Z,100.00
2019-02-02T08:31:57.718Z,100.00
2019-02-02T08:34:25.424Z,100.00
2019-02-02T08:36:53.067Z,100.00
2019-02-02T08:39:28.979Z,100.00
2019-02-02T08:41:50.856Z,100.00
2019-02-02T08:44:19.309Z,100.00
2019-02-02T08:46:46.878Z,100.00
2019-02-02T08:49:14.503Z,100.00
2019-02-02T08:51:42.149Z,100.00
2019-02-02T08:54:09.975Z,100.00
2019-02-02T08:56:37.519Z,100.00
2019-02-02T08:59:06.745Z,100.00
2019-02-02T09:01:34.359Z,100.00
2019-02-02T09:04:02.051Z,100.00
2019-02-02T09:06:38.691Z,100.00
2019-02-02T09:08:59.254Z,100.00
2019-02-02T09:11:26.867Z,100.00
2019-02-02T09:13:54.520Z,100.00
2019-02-02T09:16:22.079Z,100.00
2019-02-02T09:18:51.213Z,100.00
2019-02-02T09:21:19.238Z,100.00
2019-02-02T09:23:46.868Z,100.00
2019-02-02T09:26:14.461Z,100.00
2019-02-02T09:28:42.224Z,100.00
2019-02-02T09:31:15.871Z,100.00
2019-02-02T09:33:39.410Z,100.00
2019-02-02T09:36:08.154Z,100.00
2019-02-02T09:38:35.788Z,100.00
2019-02-02T09:41:03.607Z,100.00
2019-02-02T09:43:31.234Z,100.00
2019-02-02T09:45:58.864Z,100.00
2019-02-02T09:48:26.594Z,100.00
2019-02-02T09:50:54.288Z,100.00
2019-02-02T09:53:21.917Z,100.00
2019-02-02T09:55:49.499Z,100.00
2019-02-02T09:58:17.167Z,100.00
2019-02-02T10:00:44.792Z,99.98
2019-02-02T10:03:12.591Z,99.87
2019-02-02T10:05:40.161Z,99.66
2019-02-02T10:08:07.793Z,99.81
2019-02-02T10:10:35.420Z,99.55
2019-02-02T10:13:04.890Z,99.13
2019-02-02T10:15:32.496Z,98.92
2019-02-02T10:18:00.077Z,98.63
2019-02-02T10:20:28.742Z,98.34
2019-02-02T10:22:57.263Z,98.28
2019-02-02T10:25:26.895Z,97.67
2019-02-02T10:27:54.629Z,97.70
2019-02-02T10:30:24.920Z,97.19
2019-02-02T10:32:55.454Z,96.25
2019-02-02T10:35:23.037Z,96.44
2019-02-02T10:37:50.655Z,96.37
2019-02-02T10:40:18.260Z,93.74
2019-02-02T10:42:45.859Z,92.27
2019-02-02T10:45:14.832Z,91.78
2019-02-02T10:47:43.030Z,90.89
2019-02-02T10:50:11.951Z,91.25
2019-02-02T10:52:39.641Z,88.33
2019-02-02T10:55:09.614Z,87.14
2019-02-02T10:57:37.190Z,86.24
2019-02-02T11:00:07.441Z,85.87
2019-02-02T11:02:35.472Z,86.27
2019-02-02T11:05:04.183Z,85.59
2019-02-02T11:07:31.876Z,86.42
2019-02-02T11:09:59.513Z,85.79
2019-02-02T11:12:27.200Z,86.01
2019-02-02T11:14:55.446Z,86.08
2019-02-02T11:17:23.119Z,84.67
2019-02-02T11:19:50.747Z,85.05
2019-02-02T11:22:18.451Z,86.00
2019-02-02T11:24:46.187Z,86.89
2019-02-02T11:27:15.620Z,82.29
2019-02-02T11:29:43.326Z,78.82
2019-02-02T11:32:11.099Z,77.75
2019-02-02T11:34:38.844Z,77.05
2019-02-02T11:37:06.532Z,77.55
2019-02-02T11:39:34.282Z,77.09
2019-02-02T11:42:01.946Z,77.88
2019-02-02T11:44:29.679Z,78.24
2019-02-02T11:46:57.424Z,78.80
2019-02-02T11:49:25.062Z,78.50
2019-02-02T11:51:52.793Z,78.47
2019-02-02T11:54:20.392Z,78.22
2019-02-02T11:56:48.082Z,78.76
2019-02-02T11:59:15.660Z,77.87
2019-02-02T12:01:43.365Z,77.93
2019-02-02T12:04:11.196Z,78.21
2019-02-02T12:06:38.900Z,78.92
2019-02-02T12:09:06.925Z,78.06
2019-02-02T12:11:34.644Z,79.17
2019-02-02T12:14:02.250Z,76.33
2019-02-02T12:16:29.975Z,73.89
2019-02-02T12:18:57.664Z,72.19
2019-02-02T12:21:25.340Z,72.00
2019-02-02T12:23:52.959Z,70.40
2019-02-02T12:26:20.649Z,70.96
2019-02-02T12:28:48.386Z,68.82
2019-02-02T12:31:16.060Z,69.78
2019-02-02T12:33:43.695Z,67.50
2019-02-02T12:36:11.454Z,68.13
2019-02-02T12:38:39.024Z,67.48
2019-02-02T12:41:06.818Z,68.45
2019-02-02T12:43:34.507Z,67.99
2019-02-02T12:46:02.184Z,69.14
2019-02-02T12:48:32.174Z,69.23
2019-02-02T12:50:59.627Z,68.72
2019-02-02T12:53:27.370Z,68.48
2019-02-02T12:55:55.054Z,69.85
2019-02-02T12:58:22.822Z,68.76
2019-02-02T13:00:50.659Z,67.83
2019-02-02T13:03:18.336Z,67.94
2019-02-02T13:05:46.198Z,66.73
2019-02-02T13:08:14.172Z,68.67
2019-02-02T13:10:41.833Z,67.86
2019-02-02T13:13:11.168Z,68.89
2019-02-02T13:15:38.930Z,69.70
2019-02-02T13:18:06.796Z,69.86
2019-02-02T13:20:34.525Z,71.17
2019-02-02T13:23:02.423Z,69.98
2019-02-02T13:25:30.146Z,70.20
2019-02-02T13:27:57.946Z,69.72
2019-02-02T13:30:28.027Z,68.16
2019-02-02T13:32:57.322Z,67.81
2019-02-02T13:35:25.106Z,68.34
2019-02-02T13:37:53.160Z,67.37
2019-02-02T13:40:20.947Z,66.38
2019-02-02T13:42:48.968Z,67.57
2019-02-02T13:45:17.650Z,66.67
2019-02-02T13:47:45.372Z,65.91
2019-02-02T13:50:14.838Z,67.05
2019-02-02T13:52:42.508Z,68.12
2019-02-02T13:55:10.313Z,68.53
2019-02-02T13:57:39.039Z,69.83
2019-02-02T14:00:10.077Z,70.86
2019-02-02T14:02:37.879Z,72.00
2019-02-02T14:05:08.176Z,71.72
2019-02-02T14:07:35.846Z,70.48
2019-02-02T14:10:04.154Z,70.77
2019-02-02T14:12:33.005Z,70.73
2019-02-02T14:15:00.612Z,69.42
2019-02-02T14:17:28.256Z,68.58
2019-02-02T14:19:55.920Z,67.96
2019-02-02T14:22:23.562Z,68.53
2019-02-02T14:24:51.209Z,68.80
2019-02-02T14:27:18.804Z,69.76
2019-02-02T14:29:46.448Z,70.11
2019-02-02T14:32:14.091Z,70.71
2019-02-02T14:34:41.764Z,71.37
2019-02-02T14:37:09.420Z,72.08
2019-02-02T14:39:37.050Z,72.19
2019-02-02T14:42:04.770Z,72.64
2019-02-02T14:44:32.564Z,73.59
2019-02-02T14:47:00.325Z,73.87
2019-02-02T14:49:28.125Z,74.45
2019-02-02T14:51:55.857Z,74.59
2019-02-02T14:54:23.624Z,74.55
2019-02-02T14:56:51.316Z,74.80
2019-02-02T14:59:18.966Z,75.07
2019-02-02T15:01:46.703Z,75.02
2019-02-02T15:04:14.404Z,75.10
2019-02-02T15:06:42.027Z,75.18
2019-02-02T15:09:09.849Z,75.24
2019-02-02T15:11:38.658Z,74.89
2019-02-02T15:14:07.509Z,74.90
2019-02-02T15:16:35.202Z,75.11
2019-02-02T15:19:03.211Z,75.44
2019-02-02T15:21:30.793Z,75.61
2019-02-02T15:23:58.498Z,75.64
2019-02-02T15:26:26.139Z,75.90
2019-02-02T15:28:53.779Z,76.28
2019-02-02T15:31:21.445Z,76.57
2019-02-02T15:33:49.584Z,76.64
2019-02-02T15:36:17.158Z,76.59
2019-02-02T15:38:44.832Z,76.73
2019-02-02T15:41:12.640Z,76.97
2019-02-02T15:43:40.414Z,76.93
2019-02-02T15:46:09.774Z,77.20
2019-02-02T15:48:37.418Z,77.34
2019-02-02T15:51:05.151Z,77.32
2019-02-02T15:53:32.843Z,77.72
2019-02-02T15:56:00.422Z,77.81
2019-02-02T15:58:28.163Z,78.11
2019-02-02T16:00:55.815Z,78.21
2019-02-02T16:03:23.615Z,78.34
2019-02-02T16:05:51.233Z,78.59
2019-02-02T16:08:18.949Z,78.76
2019-02-02T16:10:46.667Z,79.13
2019-02-02T16:13:14.307Z,79.37
2019-02-02T16:15:41.927Z,79.61
2019-02-02T16:18:09.581Z,79.73
2019-02-02T16:20:41.946Z,79.80
2019-02-02T16:23:08.867Z,79.96
2019-02-02T16:25:36.449Z,80.27
2019-02-02T16:28:04.257Z,80.27
2019-02-02T16:30:31.933Z,80.40
2019-02-02T16:32:59.572Z,80.33
2019-02-02T16:35:27.284Z,80.55
2019-02-02T16:37:56.286Z,80.67
2019-02-02T16:40:25.584Z,80.87
2019-02-02T16:42:53.938Z,81.20
2019-02-02T16:45:23.842Z,81.47
2019-02-02T16:47:53.732Z,82.10
2019-02-02T16:50:21.718Z,82.81
2019-02-02T16:52:49.414Z,83.28
2019-02-02T16:55:19.427Z,83.68
2019-02-02T16:57:47.042Z,83.85
2019-02-02T17:00:17.259Z,84.43
2019-02-02T17:02:44.882Z,84.87
2019-02-02T17:05:12.907Z,85.26
2019-02-02T17:07:42.259Z,85.91
2019-02-02T17:10:13.166Z,86.03
2019-02-02T17:12:40.900Z,86.55
2019-02-02T17:15:09.006Z,86.87
2019-02-02T17:17:36.786Z,87.56
2019-02-02T17:20:09.321Z,89.22
2019-02-02T17:22:38.564Z,89.71
2019-02-02T17:25:07.748Z,89.43
2019-02-02T17:27:35.404Z,89.87
2019-02-02T17:30:04.724Z,90.67
2019-02-02T17:32:32.390Z,90.93
2019-02-02T17:35:00.361Z,90.91
2019-02-02T17:37:28.079Z,90.92
2019-02-02T17:39:55.718Z,90.98
2019-02-02T17:42:25.256Z,91.12
2019-02-02T17:44:53.119Z,91.29
2019-02-02T17:47:20.916Z,91.98
2019-02-02T17:49:48.909Z,92.15
2019-02-02T17:52:16.615Z,93.39
2019-02-02T17:54:45.296Z,93.54
2019-02-02T17:57:13.060Z,93.34
2019-02-02T17:59:41.874Z,94.36
2019-02-02T18:02:09.576Z,95.20
2019-02-02T18:04:41.010Z,95.06
2019-02-02T18:07:06.996Z,95.41
2019-02-02T18:09:34.704Z,95.72
2019-02-02T18:12:02.457Z,95.63
2019-02-02T18:14:30.175Z,95.26
2019-02-02T18:16:57.862Z,94.92
2019-02-02T18:19:25.597Z,94.98
2019-02-02T18:21:53.235Z,95.86
2019-02-02T18:24:20.796Z,96.16
2019-02-02T18:26:48.625Z,96.57
2019-02-02T18:29:16.392Z,97.04
2019-02-02T18:31:44.389Z,97.40
2019-02-02T18:34:11.955Z,97.39
2019-02-02T18:36:39.633Z,97.84
2019-02-02T18:39:09.037Z,98.17
2019-02-02T18:41:36.655Z,98.20
2019-02-02T18:44:04.458Z,98.11
2019-02-02T18:46:32.199Z,98.06
2019-02-02T18:48:59.818Z,97.45
2019-02-02T18:51:27.569Z,96.93
2019-02-02T18:53:55.200Z,96.85
2019-02-02T18:56:22.930Z,96.78
2019-02-02T18:58:50.580Z,96.76
2019-02-02T19:01:19.799Z,96.86
2019-02-02T19:03:47.445Z,96.89
2019-02-02T19:06:15.129Z,96.82
2019-02-02T19:08:42.795Z,97.15
2019-02-02T19:11:10.503Z,97.23
2019-02-02T19:13:38.097Z,97.23
2019-02-02T19:16:05.971Z,97.30
2019-02-02T19:18:34.818Z,97.43
2019-02-02T19:21:02.527Z,97.56
2019-02-02T19:23:30.176Z,97.80
2019-02-02T19:25:58.775Z,97.89
2019-02-02T19:28:38.216Z,97.89
2019-02-02T19:30:55.989Z,97.86
2019-02-02T19:33:23.611Z,97.66
2019-02-02T19:35:51.243Z,97.74
2019-02-02T19:38:19.031Z,97.45
2019-02-02T19:40:46.748Z,97.41
2019-02-02T19:43:14.435Z,97.46
2019-02-02T19:45:43.200Z,97.28
2019-02-02T19:48:11.325Z,97.41
2019-02-02T19:50:39.011Z,97.46
2019-02-02T19:53:06.635Z,98.12
2019-02-02T19:55:34.722Z,97.97
2019-02-02T19:58:02.290Z,98.41
2019-02-02T20:00:31.636Z,98.68
2019-02-02T20:02:59.734Z,98.72
2019-02-02T20:05:29.073Z,98.43
2019-02-02T20:07:56.982Z,98.48
2019-02-02T20:10:27.646Z,98.35
2019-02-02T20:12:56.482Z,98.08
2019-02-02T20:15:25.188Z,97.96
2019-02-02T20:17:52.881Z,98.16
2019-02-02T20:20:22.365Z,98.15
2019-02-02T20:22:50.333Z,98.12
2019-02-02T20:25:19.065Z,98.16
2019-02-02T20:27:46.890Z,98.63
2019-02-02T20:30:25.974Z,98.20
2019-02-02T20:32:54.703Z,98.08
2019-02-02T20:35:23.371Z,98.21
2019-02-02T20:37:51.137Z,97.99
2019-02-02T20:40:20.361Z,99.10
2019-02-02T20:42:48.018Z,99.21
2019-02-02T20:45:17.832Z,99.31
2019-02-02T20:47:45.390Z,99.00
2019-02-02T20:50:14.983Z,98.92
2019-02-02T20:52:47.728Z,98.92
2019-02-02T20:55:17.431Z,98.83
2019-02-02T20:57:46.050Z,98.93
2019-02-02T21:00:16.020Z,98.80
2019-02-02T21:02:43.712Z,98.81
2019-02-02T21:05:11.421Z,98.54
2019-02-02T21:07:39.192Z,99.34
2019-02-02T21:10:09.150Z,100.00
2019-02-02T21:12:37.130Z,100.00
2019-02-02T21:15:07.038Z,99.67
2019-02-02T21:17:34.752Z,99.46
2019-02-02T21:20:02.439Z,99.75
2019-02-02T21:22:30.112Z,100.00
2019-02-02T21:24:57.720Z,100.00
2019-02-02T21:27:25.777Z,100.00
2019-02-02T21:29:53.915Z,100.00
2019-02-02T21:32:21.570Z,100.00
2019-02-02T21:34:49.124Z,100.00
2019-02-02T21:37:16.824Z,100.00
2019-02-02T21:39:44.374Z,100.00
2019-02-02T21:42:12.694Z,100.00
2019-02-02T21:44:43.347Z,100.00
2019-02-02T21:47:09.998Z,100.00
2019-02-02T21:49:37.618Z,100.00
2019-02-02T21:52:05.460Z,100.00
2019-02-02T21:54:33.104Z,100.00
2019-02-02T21:57:01.205Z,100.00
2019-02-02T21:59:29.551Z,100.00
2019-02-02T22:01:57.329Z,100.00
2019-02-02T22:04:24.919Z,100.00
2019-02-02T22:06:52.589Z,100.00
2019-02-02T22:09:20.203Z,100.00
2019-02-02T22:11:48.179Z,100.00
2019-02-02T22:14:15.752Z,100.00
2019-02-02T22:16:43.401Z,100.00
2019-02-02T22:19:11.041Z,100.00
2019-02-02T22:21:38.659Z,100.00
2019-02-02T22:24:06.235Z,100.00
2019-02-02T22:26:34.166Z,100.00
2019-02-02T22:29:01.767Z,100.00
2019-02-02T22:31:29.615Z,100.00
2019-02-02T22:33:57.236Z,100.00
2019-02-02T22:36:27.473Z,100.00
2019-02-02T22:38:54.482Z,100.00
2019-02-02T22:41:23.414Z,100.00
2019-02-02T22:43:51.078Z,100.00
2019-02-02T22:46:18.747Z,100.00
2019-02-02T22:48:46.414Z,100.00
2019-02-02T22:51:14.283Z,100.00
2019-02-02T22:53:41.992Z,100.00
2019-02-02T22:56:10.023Z,100.00
2019-02-02T22:58:37.710Z,100.00
2019-02-02T23:01:26.225Z,100.00
2019-02-02T23:04:45.484Z,100.00
2019-02-02T23:07:43.144Z,100.00
2019-02-02T23:11:03.589Z,100.00
2019-02-02T23:14:11.357Z,100.00
2019-02-02T23:16:39.061Z,100.00
2019-02-02T23:19:06.759Z,100.00
2019-02-02T23:21:34.340Z,100.00
2019-02-02T23:24:02.079Z,100.00
2019-02-02T23:26:29.654Z,100.00
2019-02-02T23:28:57.309Z,100.00
2019-02-02T23:31:26.645Z,100.00
2019-02-02T23:33:54.394Z,100.00
2019-02-02T23:36:22.211Z,100.00
2019-02-02T23:38:49.922Z,100.00
2019-02-02T23:41:17.608Z,100.00
2019-02-02T23:43:45.384Z,100.00
2019-02-02T23:46:13.556Z,100.00
2019-02-02T23:48:41.208Z,100.00
2019-02-02T23:51:08.891Z,100.00
2019-02-02T23:53:38.135Z,100.00
2019-02-02T23:56:05.854Z,100.00
2019-02-02T23:58:33.455Z,100.00
